createdAt,value
2018-10-19T00:01:55.396Z,3.93
2018-10-19T00:04:23.853Z,3.97
2018-10-19T00:06:52.258Z,3.77
2018-10-19T00:09:20.666Z,4.03
2018-10-19T00:11:49.065Z,3.73
2018-10-19T00:14:17.473Z,3.90
2018-10-19T00:16:45.915Z,3.50
2018-10-19T00:19:14.396Z,4.37
2018-10-19T00:21:42.844Z,4.63
2018-10-19T00:24:11.240Z,4.30
2018-10-19T00:26:39.677Z,4.47
2018-10-19T00:29:08.166Z,2.90
2018-10-19T00:31:36.627Z,4.10
2018-10-19T00:34:05.523Z,4.00
2018-10-19T00:36:33.951Z,3.73
2018-10-19T00:39:02.431Z,4.47
2018-10-19T00:41:30.954Z,4.40
2018-10-19T00:43:59.340Z,5.13
2018-10-19T00:46:27.785Z,4.80
2018-10-19T00:48:56.207Z,5.07
2018-10-19T00:51:24.621Z,5.10
2018-10-19T00:53:53.038Z,4.63
2018-10-19T00:56:21.412Z,3.77
2018-10-19T00:58:49.823Z,5.33
2018-10-19T01:01:18.325Z,3.83
2018-10-19T01:03:46.790Z,5.27
2018-10-19T01:06:15.215Z,4.03
2018-10-19T01:08:43.632Z,5.87
2018-10-19T01:11:12.142Z,4.90
2018-10-19T01:13:40.549Z,3.83
2018-10-19T01:16:08.952Z,6.30
2018-10-19T01:18:37.351Z,5.67
2018-10-19T01:21:05.947Z,5.17
2018-10-19T01:23:34.358Z,5.40
2018-10-19T01:26:02.781Z,5.37
2018-10-19T01:28:31.221Z,4.60
2018-10-19T01:30:59.670Z,3.23
2018-10-19T01:33:28.130Z,4.60
2018-10-19T01:35:56.713Z,4.27
2018-10-19T01:38:25.110Z,5.43
2018-10-19T01:40:53.561Z,4.70
2018-10-19T01:43:22.049Z,5.40
2018-10-19T01:45:56.855Z,4.50
2018-10-19T01:48:25.914Z,3.63
2018-10-19T01:50:54.336Z,5.50
2018-10-19T01:53:22.777Z,5.27
2018-10-19T01:55:51.183Z,4.83
2018-10-19T01:58:19.590Z,4.63
2018-10-19T02:00:48.074Z,4.73
2018-10-19T02:03:16.518Z,4.60
2018-10-19T02:05:44.933Z,4.93
2018-10-19T02:08:13.373Z,3.87
2018-10-19T02:10:41.881Z,4.80
2018-10-19T02:13:11.000Z,4.47
2018-10-19T02:15:39.622Z,4.60
2018-10-19T02:18:08.245Z,4.07
2018-10-19T02:20:37.504Z,5.17
2018-10-19T02:23:06.010Z,4.93
2018-10-19T02:25:34.351Z,5.17
2018-10-19T02:28:02.948Z,5.00
2018-10-19T02:30:31.374Z,4.30
2018-10-19T02:32:59.816Z,5.10
2018-10-19T02:35:28.252Z,4.97
2018-10-19T02:37:56.699Z,4.90
2018-10-19T02:40:25.126Z,5.17
2018-10-19T02:42:53.571Z,4.90
2018-10-19T02:45:21.955Z,4.77
2018-10-19T02:47:50.367Z,3.90
2018-10-19T02:50:18.761Z,4.67
2018-10-19T02:52:47.140Z,3.70
2018-10-19T02:55:15.561Z,3.47
2018-10-19T02:57:44.050Z,5.27
2018-10-19T03:00:13.007Z,3.47
2018-10-19T03:02:41.969Z,4.40
2018-10-19T03:05:10.776Z,3.63
2018-10-19T03:07:39.375Z,4.97
2018-10-19T03:10:08.353Z,4.50
2018-10-19T03:12:36.789Z,3.73
2018-10-19T03:15:06.803Z,3.90
2018-10-19T03:17:35.243Z,4.83
2018-10-19T03:20:03.947Z,5.10
2018-10-19T03:22:32.317Z,5.07
2018-10-19T03:25:00.758Z,5.00
2018-10-19T03:27:29.169Z,4.60
2018-10-19T03:29:57.603Z,3.80
2018-10-19T03:32:26.085Z,4.70
2018-10-19T03:34:54.498Z,3.30
2018-10-19T03:37:22.939Z,4.80
2018-10-19T03:39:51.385Z,5.30
2018-10-19T03:42:19.827Z,3.87
2018-10-19T03:44:48.211Z,5.20
2018-10-19T03:47:16.726Z,5.63
2018-10-19T03:49:45.061Z,4.90
2018-10-19T03:52:13.450Z,4.70
2018-10-19T03:54:41.842Z,4.57
2018-10-19T03:57:10.324Z,4.73
2018-10-19T03:59:39.373Z,4.60
2018-10-19T04:02:07.884Z,4.33
2018-10-19T04:04:36.257Z,2.97
2018-10-19T04:07:05.074Z,4.10
2018-10-19T04:09:33.470Z,4.73
2018-10-19T04:12:01.909Z,4.47
2018-10-19T04:14:30.318Z,3.63
2018-10-19T04:16:58.760Z,4.47
2018-10-19T04:19:27.177Z,4.87
2018-10-19T04:21:55.578Z,4.67
2018-10-19T04:24:23.999Z,4.50
2018-10-19T04:26:52.380Z,4.33
2018-10-19T04:29:20.776Z,4.80
2018-10-19T04:31:49.219Z,4.33
2018-10-19T04:34:17.650Z,4.63
2018-10-19T04:36:46.115Z,4.20
2018-10-19T04:39:14.602Z,5.03
2018-10-19T04:41:43.079Z,4.90
2018-10-19T04:44:11.427Z,5.07
2018-10-19T04:46:39.872Z,5.30
2018-10-19T04:49:08.274Z,4.53
2018-10-19T04:51:37.560Z,4.57
2018-10-19T04:54:05.961Z,5.00
2018-10-19T04:56:34.362Z,4.93
2018-10-19T04:59:03.489Z,3.90
2018-10-19T05:01:31.898Z,5.40
2018-10-19T05:04:00.369Z,5.57
2018-10-19T05:06:28.930Z,5.20
2018-10-19T05:08:57.268Z,6.33
2018-10-19T05:11:25.644Z,6.43
2018-10-19T05:13:54.045Z,6.07
2018-10-19T05:16:22.485Z,5.33
2018-10-19T05:18:50.926Z,4.63
2018-10-19T05:21:19.326Z,5.90
2018-10-19T05:23:47.745Z,6.07
2018-10-19T05:26:16.228Z,5.97
2018-10-19T05:28:44.573Z,5.07
2018-10-19T05:31:12.972Z,5.53
2018-10-19T05:33:41.373Z,6.07
2018-10-19T05:36:09.774Z,6.00
2018-10-19T05:38:38.242Z,5.90
2018-10-19T05:41:06.816Z,6.37
2018-10-19T05:43:35.255Z,6.50
2018-10-19T05:46:03.712Z,6.67
2018-10-19T05:48:32.121Z,6.77
2018-10-19T05:51:01.012Z,6.97
2018-10-19T05:53:29.453Z,5.20
2018-10-19T05:55:58.887Z,6.57
2018-10-19T05:58:27.289Z,7.50
2018-10-19T06:00:57.157Z,6.93
2018-10-19T06:03:26.176Z,7.10
2018-10-19T06:05:54.630Z,6.43
2018-10-19T06:08:23.262Z,7.60
2018-10-19T06:10:51.738Z,6.63
2018-10-19T06:13:20.185Z,7.40
2018-10-19T06:15:48.713Z,8.20
2018-10-19T06:18:17.123Z,5.07
2018-10-19T06:20:45.669Z,6.93
2018-10-19T06:23:14.216Z,7.50
2018-10-19T06:25:42.749Z,8.53
2018-10-19T06:28:11.148Z,7.80
2018-10-19T06:30:39.821Z,7.93
2018-10-19T06:33:08.339Z,6.77
2018-10-19T06:35:36.806Z,8.80
2018-10-19T06:38:05.776Z,9.20
2018-10-19T06:40:34.179Z,8.00
2018-10-19T06:43:02.654Z,9.23
2018-10-19T06:45:31.090Z,8.93
2018-10-19T06:47:59.520Z,9.73
2018-10-19T06:50:27.963Z,9.60
2018-10-19T06:52:56.559Z,10.27
2018-10-19T06:55:24.978Z,9.43
2018-10-19T06:57:53.450Z,9.70
2018-10-19T07:00:21.971Z,9.70
2018-10-19T07:02:50.405Z,9.97
2018-10-19T07:05:18.899Z,7.60
2018-10-19T07:07:47.381Z,10.43
2018-10-19T07:10:15.758Z,8.77
2018-10-19T07:12:44.234Z,9.70
2018-10-19T07:15:12.665Z,8.60
2018-10-19T07:17:41.149Z,9.93
2018-10-19T07:20:10.808Z,9.20
2018-10-19T07:22:39.418Z,8.73
2018-10-19T07:25:08.339Z,10.13
2018-10-19T07:27:36.892Z,9.77
2018-10-19T07:30:05.539Z,11.40
2018-10-19T07:32:34.145Z,10.53
2018-10-19T07:35:02.848Z,10.07
2018-10-19T07:37:31.257Z,11.47
2018-10-19T07:39:59.742Z,10.47
2018-10-19T07:42:28.246Z,10.83
2018-10-19T07:44:56.615Z,12.50
2018-10-19T07:47:25.202Z,12.07
2018-10-19T07:49:54.568Z,10.97
2018-10-19T07:52:22.970Z,12.27
2018-10-19T07:54:51.368Z,10.33
2018-10-19T07:57:19.833Z,8.43
2018-10-19T07:59:48.333Z,12.43
2018-10-19T08:02:16.860Z,13.70
2018-10-19T08:04:45.126Z,13.53
2018-10-19T08:07:14.456Z,12.50
2018-10-19T08:09:42.917Z,14.40
2018-10-19T08:12:11.430Z,12.03
2018-10-19T08:14:39.830Z,12.70
2018-10-19T08:17:08.312Z,14.20
2018-10-19T08:19:36.698Z,14.07
2018-10-19T08:22:05.262Z,13.77
2018-10-19T08:24:33.803Z,14.27
2018-10-19T08:27:02.338Z,13.90
2018-10-19T08:29:30.833Z,14.97
2018-10-19T08:31:59.294Z,14.07
2018-10-19T08:34:27.721Z,14.43
2018-10-19T08:36:56.137Z,13.97
2018-10-19T08:39:24.593Z,14.07
2018-10-19T08:41:53.062Z,12.30
2018-10-19T08:44:22.157Z,10.73
2018-10-19T08:46:50.589Z,15.20
2018-10-19T08:49:19.080Z,12.60
2018-10-19T08:51:47.516Z,14.43
2018-10-19T08:54:15.998Z,11.10
2018-10-19T08:56:44.416Z,14.67
2018-10-19T08:59:12.940Z,15.43
2018-10-19T09:01:41.238Z,16.00
2018-10-19T09:04:09.685Z,16.60
2018-10-19T09:06:38.206Z,16.00
2018-10-19T09:09:09.073Z,13.10
2018-10-19T09:11:37.636Z,14.00
2018-10-19T09:14:17.158Z,14.83
2018-10-19T09:16:45.665Z,15.60
2018-10-19T09:19:14.094Z,14.07
2018-10-19T09:21:42.610Z,16.13
2018-10-19T09:24:11.020Z,15.63
2018-10-19T09:26:39.510Z,16.83
2018-10-19T09:29:07.966Z,17.00
2018-10-19T09:31:36.365Z,14.67
2018-10-19T09:34:05.123Z,15.43
2018-10-19T09:36:33.692Z,16.83
2018-10-19T09:39:02.039Z,17.63
2018-10-19T09:41:30.527Z,17.10
2018-10-19T09:43:59.582Z,16.50
2018-10-19T09:46:28.041Z,16.20
2018-10-19T09:48:56.482Z,15.73
2018-10-19T09:51:24.834Z,16.67
2018-10-19T09:53:53.370Z,17.10
2018-10-19T09:56:21.861Z,7.47
2018-10-19T09:58:50.278Z,11.00
2018-10-19T10:01:23.999Z,11.97
2018-10-19T10:03:52.521Z,15.40
2018-10-19T10:06:21.533Z,14.73
2018-10-19T10:08:49.942Z,15.30
2018-10-19T10:11:18.546Z,15.37
2018-10-19T10:13:48.359Z,14.90
2018-10-19T10:16:16.952Z,16.00
2018-10-19T10:18:45.570Z,10.23
2018-10-19T10:21:14.110Z,14.83
2018-10-19T10:23:43.259Z,15.47
2018-10-19T10:26:12.222Z,14.03
2018-10-19T10:28:40.769Z,12.97
2018-10-19T10:31:09.309Z,14.97
2018-10-19T10:33:38.418Z,13.80
2018-10-19T10:36:08.105Z,14.70
2018-10-19T10:38:39.361Z,13.10
2018-10-19T10:41:07.751Z,15.30
2018-10-19T10:43:36.809Z,14.50
2018-10-19T10:46:05.914Z,16.07
2018-10-19T10:48:34.402Z,16.33
2018-10-19T10:51:02.938Z,16.17
2018-10-19T10:53:31.435Z,15.83
2018-10-19T10:55:59.867Z,12.73
2018-10-19T10:58:28.358Z,16.33
2018-10-19T11:00:56.871Z,16.37
2018-10-19T11:03:25.284Z,15.53
2018-10-19T11:05:53.833Z,15.37
2018-10-19T11:08:22.549Z,15.40
2018-10-19T11:10:50.985Z,16.00
2018-10-19T11:13:19.504Z,16.33
2018-10-19T11:15:47.941Z,16.43
2018-10-19T11:18:16.638Z,15.77
2018-10-19T11:20:45.121Z,15.97
2018-10-19T11:23:13.611Z,11.73
2018-10-19T11:25:41.987Z,15.13
2018-10-19T11:28:10.813Z,13.90
2018-10-19T11:30:39.243Z,11.60
2018-10-19T11:33:07.724Z,14.90
2018-10-19T11:35:36.142Z,15.70
2018-10-19T11:38:05.321Z,14.53
2018-10-19T11:40:36.672Z,14.03
2018-10-19T11:43:06.982Z,12.63
2018-10-19T11:45:36.518Z,11.20
2018-10-19T11:48:05.037Z,10.57
2018-10-19T11:50:33.646Z,16.13
2018-10-19T11:53:02.302Z,14.97
2018-10-19T11:55:30.802Z,15.63
2018-10-19T11:57:59.606Z,15.40
2018-10-19T12:00:28.239Z,15.43
2018-10-19T12:02:56.677Z,11.83
2018-10-19T12:05:25.130Z,15.70
2018-10-19T12:07:53.652Z,11.53
2018-10-19T12:10:22.623Z,11.23
2018-10-19T12:12:51.079Z,10.80
2018-10-19T12:15:20.760Z,15.30
2018-10-19T12:17:49.289Z,15.17
2018-10-19T12:20:18.817Z,10.30
2018-10-19T12:22:47.252Z,13.90
2018-10-19T12:25:17.644Z,13.13
2018-10-19T12:27:46.141Z,11.00
2018-10-19T12:30:14.548Z,13.87
2018-10-19T12:32:43.003Z,14.17
2018-10-19T12:35:13.106Z,9.93
2018-10-19T12:37:41.550Z,12.80
2018-10-19T12:40:10.951Z,9.47
2018-10-19T12:42:39.695Z,13.03
2018-10-19T12:47:21.404Z,13.37
2018-10-19T12:49:50.453Z,12.27
2018-10-19T12:52:19.102Z,12.97
2018-10-19T12:54:48.192Z,11.57
2018-10-19T12:57:16.711Z,11.63
2018-10-19T12:59:45.058Z,13.37
2018-10-19T13:02:14.450Z,9.47
2018-10-19T13:04:42.930Z,11.83
2018-10-19T13:07:11.465Z,11.27
2018-10-19T13:09:39.904Z,12.27
2018-10-19T13:12:08.384Z,12.83
2018-10-19T13:14:36.919Z,13.37
2018-10-19T13:17:05.903Z,8.60
2018-10-19T13:19:34.497Z,6.73
2018-10-19T13:22:02.989Z,13.57
2018-10-19T13:24:31.568Z,12.63
2018-10-19T13:27:00.078Z,12.40
2018-10-19T13:29:28.451Z,8.17
2018-10-19T13:31:57.021Z,10.97
2018-10-19T13:34:25.502Z,10.77
2018-10-19T13:36:54.401Z,10.63
2018-10-19T13:39:22.796Z,12.20
2018-10-19T13:41:51.240Z,10.93
2018-10-19T13:44:19.670Z,10.73
2018-10-19T13:46:48.096Z,10.30
2018-10-19T13:49:16.557Z,11.53
2018-10-19T13:51:44.952Z,10.87
2018-10-19T13:54:13.453Z,11.73
2018-10-19T13:56:42.457Z,12.37
2018-10-19T13:59:11.087Z,12.50
2018-10-19T14:01:40.626Z,12.28
2018-10-19T14:04:09.041Z,11.30
2018-10-19T14:06:37.626Z,11.90
2018-10-19T14:09:08.552Z,11.23
2018-10-19T14:11:37.074Z,10.87
2018-10-19T14:14:05.564Z,11.30
2018-10-19T14:16:34.051Z,11.40
2018-10-19T14:19:02.834Z,10.47
2018-10-19T14:21:31.316Z,8.80
2018-10-19T14:23:59.899Z,8.50
2018-10-19T14:26:28.596Z,9.20
2018-10-19T14:28:56.982Z,9.10
2018-10-19T14:31:25.514Z,10.50
2018-10-19T14:33:53.945Z,10.27
2018-10-19T14:36:23.297Z,10.90
2018-10-19T14:38:52.236Z,10.00
2018-10-19T14:41:20.608Z,10.33
2018-10-19T14:43:49.731Z,11.00
2018-10-19T14:46:19.635Z,9.87
2018-10-19T14:48:48.053Z,10.07
2018-10-19T14:51:16.530Z,10.90
2018-10-19T14:53:44.923Z,9.07
2018-10-19T14:56:13.319Z,10.20
2018-10-19T14:58:41.914Z,9.87
2018-10-19T15:01:10.623Z,10.00
2018-10-19T15:03:39.091Z,9.90
2018-10-19T15:06:07.571Z,9.47
2018-10-19T15:08:36.142Z,10.17
2018-10-19T15:11:05.039Z,10.33
2018-10-19T15:13:34.325Z,5.20
2018-10-19T15:16:02.978Z,9.80
2018-10-19T15:18:31.481Z,5.70
2018-10-19T15:21:00.385Z,8.97
2018-10-19T15:23:29.005Z,9.27
2018-10-19T15:25:57.527Z,7.50
2018-10-19T15:28:26.004Z,8.63
2018-10-19T15:30:55.329Z,10.33
2018-10-19T15:33:23.757Z,10.00
2018-10-19T15:35:52.759Z,9.90
2018-10-19T15:38:21.209Z,8.47
2018-10-19T15:40:50.079Z,10.70
2018-10-19T15:43:18.664Z,9.87
2018-10-19T15:45:47.085Z,8.93
2018-10-19T15:48:15.750Z,9.03
2018-10-19T15:50:44.845Z,9.63
2018-10-19T15:53:13.941Z,8.63
2018-10-19T15:55:42.458Z,9.00
2018-10-19T15:58:10.835Z,8.27
2018-10-19T16:00:39.366Z,9.13
2018-10-19T16:03:07.745Z,8.80
2018-10-19T16:05:36.162Z,9.37
2018-10-19T16:08:04.642Z,8.27
2018-10-19T16:10:33.022Z,7.93
2018-10-19T16:13:01.465Z,7.77
2018-10-19T16:15:29.910Z,7.23
2018-10-19T16:17:58.376Z,7.57
2018-10-19T16:20:26.790Z,7.53
2018-10-19T16:22:55.235Z,7.60
2018-10-19T16:25:24.088Z,7.27
2018-10-19T16:27:52.504Z,7.50
2018-10-19T16:30:20.952Z,7.43
2018-10-19T16:32:49.523Z,7.67
2018-10-19T16:35:18.692Z,7.47
2018-10-19T16:37:47.091Z,7.00
2018-10-19T16:40:15.528Z,5.80
2018-10-19T16:42:43.951Z,7.80
2018-10-19T16:45:12.486Z,6.97
2018-10-19T16:47:41.324Z,8.40
2018-10-19T16:50:10.309Z,6.83
2018-10-19T16:52:38.857Z,7.30
2018-10-19T16:55:07.291Z,7.50
2018-10-19T16:57:35.845Z,7.27
2018-10-19T17:00:04.438Z,6.87
2018-10-19T17:02:33.025Z,6.97
2018-10-19T17:05:01.451Z,7.30
2018-10-19T17:07:29.887Z,7.97
2018-10-19T17:09:58.385Z,7.90
2018-10-19T17:12:26.829Z,8.30
2018-10-19T17:14:55.320Z,7.93
2018-10-19T17:17:23.861Z,7.77
2018-10-19T17:19:52.307Z,8.10
2018-10-19T17:22:20.829Z,8.17
2018-10-19T17:24:49.289Z,8.67
2018-10-19T17:27:18.004Z,8.57
2018-10-19T17:29:46.377Z,8.07
2018-10-19T17:32:14.899Z,8.43
2018-10-19T17:34:43.327Z,8.83
2018-10-19T17:37:11.900Z,8.30
2018-10-19T17:39:40.322Z,8.20
2018-10-19T17:42:08.950Z,8.33
2018-10-19T17:44:37.260Z,8.67
2018-10-19T17:47:05.884Z,8.20
2018-10-19T17:49:34.367Z,7.87
2018-10-19T17:52:03.253Z,8.00
2018-10-19T17:54:31.998Z,7.90
2018-10-19T17:57:00.537Z,8.20
2018-10-19T17:59:28.955Z,8.07
2018-10-19T18:01:58.045Z,7.97
2018-10-19T18:04:26.491Z,8.13
2018-10-19T18:06:54.986Z,8.03
2018-10-19T18:09:23.472Z,8.10
2018-10-19T18:11:51.898Z,8.97
2018-10-19T18:14:20.437Z,8.27
2018-10-19T18:16:48.855Z,8.90
2018-10-19T18:19:17.309Z,8.47
2018-10-19T18:21:45.925Z,8.00
2018-10-19T18:24:14.456Z,8.37
2018-10-19T18:26:42.994Z,8.70
2018-10-19T18:29:11.537Z,9.03
2018-10-19T18:31:40.641Z,9.10
2018-10-19T18:34:09.288Z,8.07
2018-10-19T18:36:38.346Z,9.00
2018-10-19T18:39:09.582Z,8.37
2018-10-19T18:41:38.098Z,9.20
2018-10-19T18:44:08.223Z,9.07
2018-10-19T18:46:36.945Z,9.17
2018-10-19T18:49:05.948Z,8.53
2018-10-19T18:51:35.898Z,9.03
2018-10-19T18:54:05.052Z,9.80
2018-10-19T18:56:33.482Z,8.03
2018-10-19T18:59:01.907Z,9.13
2018-10-19T19:01:31.069Z,9.77
2018-10-19T19:03:59.547Z,8.77
2018-10-19T19:06:28.030Z,9.37
2018-10-19T19:08:56.508Z,9.33
2018-10-19T19:11:24.993Z,9.83
2018-10-19T19:13:53.454Z,10.33
2018-10-19T19:16:29.794Z,9.60
2018-10-19T19:18:58.297Z,9.57
2018-10-19T19:21:26.873Z,9.57
2018-10-19T19:24:00.581Z,11.03
2018-10-19T19:26:29.091Z,10.47
2018-10-19T19:28:58.478Z,10.60
2018-10-19T19:31:26.886Z,10.00
2018-10-19T19:34:00.803Z,8.80
2018-10-19T19:36:29.276Z,8.40
2018-10-19T19:38:58.028Z,8.73
2018-10-19T19:41:31.852Z,9.10
2018-10-19T19:44:00.406Z,9.60
2018-10-19T19:46:28.809Z,9.37
2018-10-19T19:49:02.882Z,10.17
2018-10-19T19:51:31.733Z,8.57
2018-10-19T19:54:00.323Z,7.67
2018-10-19T19:56:28.779Z,7.43
2018-10-19T19:58:57.243Z,8.03
2018-10-19T20:01:25.659Z,7.93
2018-10-19T20:03:54.064Z,8.33
2018-10-19T20:06:22.659Z,8.63
2018-10-19T20:08:51.043Z,9.07
2018-10-19T20:11:19.510Z,9.57
2018-10-19T20:13:47.977Z,8.83
2018-10-19T20:16:16.549Z,9.03
2018-10-19T20:18:45.041Z,8.53
2018-10-19T20:21:13.581Z,7.97
2018-10-19T20:23:42.029Z,7.57
2018-10-19T20:26:10.547Z,8.03
2018-10-19T20:28:39.021Z,7.77
2018-10-19T20:31:07.476Z,7.90
2018-10-19T20:33:35.935Z,8.17
2018-10-19T20:36:04.463Z,9.97
2018-10-19T20:38:32.987Z,9.23
2018-10-19T20:41:01.519Z,8.43
2018-10-19T20:43:29.858Z,7.70
2018-10-19T20:45:58.247Z,9.70
2018-10-19T20:48:26.690Z,8.50
2018-10-19T20:50:55.153Z,8.47
2018-10-19T20:53:23.615Z,8.30
2018-10-19T20:55:52.030Z,8.63
2018-10-19T20:58:20.448Z,8.63
2018-10-19T21:00:48.901Z,8.43
2018-10-19T21:03:17.311Z,9.20
2018-10-19T21:05:45.755Z,9.10
2018-10-19T21:08:14.192Z,7.77
2018-10-19T21:10:42.633Z,7.87
2018-10-19T21:13:11.014Z,7.50
2018-10-19T21:15:39.445Z,8.13
2018-10-19T21:18:07.987Z,8.27
2018-10-19T21:20:36.548Z,8.00
2018-10-19T21:23:05.382Z,8.33
2018-10-19T21:25:33.838Z,8.30
2018-10-19T21:28:02.321Z,9.07
2018-10-19T21:30:30.849Z,9.07
2018-10-19T21:32:59.361Z,8.53
2018-10-19T21:35:27.857Z,9.70
2018-10-19T21:37:56.329Z,8.83
2018-10-19T21:40:24.694Z,9.77
2018-10-19T21:42:53.245Z,8.73
2018-10-19T21:45:21.738Z,9.73
2018-10-19T21:47:50.166Z,8.97
2018-10-19T21:50:21.748Z,8.53
2018-10-19T21:52:50.943Z,8.47
2018-10-19T21:55:22.147Z,8.93
2018-10-19T21:57:51.202Z,9.07
2018-10-19T22:00:19.603Z,8.87
2018-10-19T22:02:48.078Z,9.93
2018-10-19T22:05:16.600Z,9.40
2018-10-19T22:07:45.231Z,8.37
2018-10-19T22:10:13.549Z,9.30
2018-10-19T22:12:42.032Z,9.47
2018-10-19T22:15:10.925Z,10.27
2018-10-19T22:17:39.320Z,9.83
2018-10-19T22:20:08.065Z,9.60
2018-10-19T22:22:36.732Z,10.37
2018-10-19T22:25:06.001Z,10.27
2018-10-19T22:27:34.471Z,9.70
2018-10-19T22:30:02.892Z,9.80
2018-10-19T22:32:31.301Z,10.30
2018-10-19T22:34:59.816Z,9.53
2018-10-19T22:37:28.247Z,9.60
2018-10-19T22:39:56.678Z,9.83
2018-10-19T22:42:25.164Z,9.33
2018-10-19T22:44:54.300Z,10.47
2018-10-19T22:47:22.754Z,10.00
2018-10-19T22:49:51.170Z,9.87
2018-10-19T22:52:19.555Z,10.30
2018-10-19T22:54:48.747Z,9.87
2018-10-19T22:57:17.196Z,11.00
2018-10-19T22:59:45.585Z,11.03
2018-10-19T23:02:14.025Z,10.90
2018-10-19T23:04:42.474Z,11.20
2018-10-19T23:07:10.953Z,11.67
2018-10-19T23:09:39.363Z,11.53
2018-10-19T23:12:08.535Z,11.03
2018-10-19T23:14:36.972Z,12.00
2018-10-19T23:17:05.488Z,10.93
2018-10-19T23:19:33.942Z,11.20
2018-10-19T23:22:02.384Z,11.60
2018-10-19T23:24:30.847Z,11.90
2018-10-19T23:26:59.263Z,10.97
2018-10-19T23:29:27.660Z,10.40
2018-10-19T23:31:56.126Z,11.77
2018-10-19T23:34:24.556Z,11.60
2018-10-19T23:36:52.986Z,11.03
2018-10-19T23:39:21.389Z,10.97
2018-10-19T23:41:49.784Z,10.63
2018-10-19T23:44:18.274Z,11.40
2018-10-19T23:46:46.702Z,10.30
2018-10-19T23:49:15.185Z,11.07
2018-10-19T23:51:43.596Z,10.60
2018-10-19T23:54:11.991Z,10.00
2018-10-19T23:56:40.541Z,9.83
2018-10-19T23:59:09.010Z,10.40
